Time;durP1;ratioP1;P1;durP2;ratioP2;P2;SDS_P1;SDS_P2;PMS_P1;PMS_P2;Temp;Humidity;BMP_temperature;BMP_pressure;BME280_temperature;BME280_humidity;BME280_pressure;Samples;Min_cycle;Max_cycle;Signal;HPM_P1;HPM_P2
2023/03/28 00:01:34;;;;;;;8.00;3.00;;;;;;;-1.29;100.00;96589.41;10407671;28;20324;-74
2023/03/28 00:06:37;;;;;;;6.33;2.97;;;;;;;-1.26;100.00;96602.09;10408020;28;20200;-74
2023/03/28 00:11:37;;;;;;;11.60;5.07;;;;;;;-1.17;100.00;96606.72;10408131;28;20216;-75
2023/03/28 00:16:38;;;;;;;6.27;2.17;;;;;;;-1.02;100.00;96599.06;10408151;28;20192;-75
2023/03/28 00:21:45;;;;;;;4.13;2.07;;;;;;;-0.93;100.00;96603.66;10408415;28;20588;-75
2023/03/28 00:26:48;;;;;;;6.03;2.03;;;;;;;-0.92;100.00;96595.03;10416158;28;20530;-75
2023/03/28 00:31:49;;;;;;;5.83;1.80;;;;;;;-0.82;100.00;96574.75;10414389;28;20653;-74
2023/03/28 00:36:49;;;;;;;7.30;1.93;;;;;;;-0.98;100.00;96585.09;10414119;28;20318;-75
2023/03/28 00:41:50;;;;;;;2.63;2.00;;;;;;;-0.88;100.00;96575.13;10415503;28;20772;-74
2023/03/28 00:46:50;;;;;;;2.90;1.70;;;;;;;-0.85;100.00;96575.75;10415547;28;20651;-75
2023/03/28 00:52:00;;;;;;;12.93;2.20;;;;;;;-1.01;100.00;96580.97;10413006;28;20184;-74
2023/03/28 00:57:01;;;;;;;9.57;1.93;;;;;;;-0.95;100.00;96583.19;10414395;28;20208;-74
2023/03/28 01:02:02;;;;;;;5.03;1.90;;;;;;;-0.95;100.00;96574.63;10379343;28;20231;-74
2023/03/28 01:07:03;;;;;;;1.63;1.50;;;;;;;-0.93;100.00;96586.50;10414254;28;20258;-74
2023/03/28 01:12:06;;;;;;;5.23;2.27;;;;;;;-0.98;100.00;96583.38;10413180;28;20266;-75
2023/03/28 01:17:07;;;;;;;5.33;2.07;;;;;;;-1.02;100.00;96587.03;10412492;28;20226;-75
2023/03/28 01:22:24;;;;;;;9.03;1.77;;;;;;;-0.99;100.00;96574.00;10412661;28;20587;-74
2023/03/28 01:27:40;;;;;;;4.43;1.90;;;;;;;-0.95;100.00;96585.75;10396128;28;20220;-74
2023/03/28 01:32:50;;;;;;;4.97;2.00;;;;;;;-0.88;100.00;96591.38;10437175;28;20194;-74
2023/03/28 01:38:13;;;;;;;8.90;2.33;;;;;;;-0.88;100.00;96586.22;10436410;28;20759;-75
2023/03/28 01:43:26;;;;;;;2.93;2.00;;;;;;;-0.91;100.00;96607.78;10436581;28;20216;-74
2023/03/28 01:48:48;;;;;;;10.43;2.97;;;;;;;-0.99;100.00;96604.84;10436382;28;20660;-75
2023/03/28 01:53:56;;;;;;;6.97;2.83;;;;;;;-1.03;100.00;96612.81;10435652;28;20202;-75
2023/03/28 01:58:56;;;;;;;8.03;3.10;;;;;;;-1.05;100.00;96624.94;10452650;28;20572;-74
2023/03/28 02:04:19;;;;;;;5.87;3.33;;;;;;;-1.11;100.00;96616.66;10452736;28;20664;-75
2023/03/28 02:09:29;;;;;;;6.10;3.40;;;;;;;-0.98;100.00;96618.50;10435057;28;20195;-75
2023/03/28 02:14:40;;;;;;;5.80;3.30;;;;;;;-1.05;100.00;96612.09;10434473;28;20183;-75
2023/03/28 02:20:21;;;;;;;6.17;2.63;;;;;;;-0.98;100.00;96624.50;10364584;28;20244;-75
2023/03/28 02:25:38;;;;;;;10.23;3.37;;;;;;;-1.05;100.00;96607.75;10404998;28;20195;-74
2023/03/28 02:31:12;;;;;;;10.30;3.00;;;;;;;-1.06;100.00;96600.97;10434498;28;20200;-74
2023/03/28 02:36:16;;;;;;;6.80;2.40;;;;;;;-0.96;100.00;96583.28;10450777;28;20223;-74
2023/03/28 02:41:54;;;;;;;7.27;2.97;;;;;;;-1.02;100.00;96581.06;10433989;28;20254;-75
2023/03/28 02:47:06;;;;;;;8.87;2.80;;;;;;;-1.03;100.00;96584.53;10428022;28;20202;-74
2023/03/28 02:52:16;;;;;;;6.17;2.63;;;;;;;-1.06;100.00;96585.53;10410505;28;20188;-74
2023/03/28 02:57:27;;;;;;;9.53;2.57;;;;;;;-1.06;100.00;96598.38;10376188;28;20185;-74
2023/03/28 03:02:28;;;;;;;9.23;2.83;;;;;;;-1.02;100.00;96599.06;10395264;28;20211;-74
2023/03/28 03:07:30;;;;;;;6.03;3.10;;;;;;;-1.01;100.00;96601.53;10427620;28;20192;-75
2023/03/28 03:12:30;;;;;;;10.43;3.23;;;;;;;-1.06;100.00;96600.97;10425639;28;20196;-74
2023/03/28 03:17:32;;;;;;;8.10;3.17;;;;;;;-1.15;100.00;96624.63;10424860;28;20284;-75
2023/03/28 03:22:33;;;;;;;4.47;2.60;;;;;;;-1.30;100.00;96605.75;10425991;28;20707;-75
2023/03/28 03:27:35;;;;;;;11.73;3.37;;;;;;;-1.34;100.00;96617.13;10442919;28;20600;-73
2023/03/28 03:32:38;;;;;;;11.43;3.67;;;;;;;-1.20;100.00;96608.63;10425384;28;20678;-75
2023/03/28 03:37:38;;;;;;;8.07;2.90;;;;;;;-1.13;100.00;96609.94;10424893;28;20242;-75
2023/03/28 03:42:39;;;;;;;7.37;3.10;;;;;;;-1.13;100.00;96622.81;10424188;28;20547;-73
2023/03/28 03:47:39;;;;;;;9.57;3.33;;;;;;;-1.12;100.00;96599.59;10425130;28;20541;-74
2023/03/28 03:52:40;;;;;;;8.53;2.90;;;;;;;-1.18;100.00;96617.94;10424115;28;20180;-73
2023/03/28 03:57:40;;;;;;;5.77;2.20;;;;;;;-1.91;100.00;96686.97;10435426;28;20265;-75
2023/03/28 04:02:41;;;;;;;4.90;1.23;;;;;;;-2.56;100.00;96706.47;10427074;28;20215;-75
2023/03/28 04:07:42;;;;;;;3.67;1.13;;;;;;;-2.77;100.00;96705.78;10431882;28;20242;-74
2023/03/28 04:12:55;;;;;;;2.50;1.10;;;;;;;-2.74;100.00;96717.59;10430844;28;20188;-72
2023/03/28 04:17:56;;;;;;;1.03;0.90;;;;;;;-2.73;100.00;96732.09;10431439;28;20211;-73
2023/03/28 04:22:59;;;;;;;2.97;1.20;;;;;;;-2.75;100.00;96739.03;10430838;28;20216;-73
2023/03/28 04:28:01;;;;;;;4.37;1.20;;;;;;;-2.79;100.00;96756.28;10431144;28;20215;-72
2023/03/28 04:33:04;;;;;;;4.00;1.13;;;;;;;-2.85;100.00;96764.25;10430437;28;20229;-75
2023/03/28 04:38:11;;;;;;;5.87;1.50;;;;;;;-2.87;100.00;96773.75;10431138;28;20232;-73
2023/03/28 04:43:11;;;;;;;8.67;2.03;;;;;;;-2.81;100.00;96800.84;10448534;28;20724;-75
2023/03/28 04:48:21;;;;;;;2.67;1.90;;;;;;;-2.72;100.00;96810.66;10430759;28;20200;-75
2023/03/28 04:53:22;;;;;;;3.80;2.10;;;;;;;-2.74;100.00;96808.19;10430559;28;20211;-75
2023/03/28 04:58:57;;;;;;;6.53;2.50;;;;;;;-2.64;100.00;96818.00;10447257;28;20224;-75
2023/03/28 05:04:00;;;;;;;4.57;2.83;;;;;;;-2.63;100.00;96825.63;10428543;28;20194;-74
2023/03/28 05:09:01;;;;;;;8.23;3.10;;;;;;;-2.58;100.00;96827.97;10449818;28;20648;-75
2023/03/28 05:14:03;;;;;;;6.00;2.83;;;;;;;-2.56;100.00;96834.69;10437237;28;20623;-74
2023/03/28 05:19:10;;;;;;;9.27;2.40;;;;;;;-2.51;100.00;96840.44;10437415;28;20204;-74
2023/03/28 05:24:27;;;;;;;5.10;2.30;;;;;;;-2.47;100.00;96851.34;10436886;28;20191;-75
2023/03/28 05:29:29;;;;;;;3.63;2.50;;;;;;;-2.52;100.00;96840.50;10437156;28;20184;-74
2023/03/28 05:34:29;;;;;;;8.70;2.70;;;;;;;-2.33;100.00;96845.56;10436506;28;20261;-74
2023/03/28 05:39:30;;;;;;;8.47;2.57;;;;;;;-2.35;100.00;96855.09;10436215;28;20227;-75
2023/03/28 05:44:37;;;;;;;6.70;3.00;;;;;;;-2.18;100.00;96860.22;10436303;28;20199;-74
2023/03/28 05:50:03;;;;;;;8.17;2.73;;;;;;;-2.33;100.00;96859.25;10431763;28;20219;-74
2023/03/28 05:55:04;;;;;;;6.70;2.57;;;;;;;-2.41;100.00;96869.03;10409978;28;20291;-74
2023/03/28 06:00:13;;;;;;;5.40;2.40;;;;;;;-2.51;100.00;96872.94;10394612;28;20576;-74
2023/03/28 06:05:20;;;;;;;3.70;2.10;;;;;;;-2.38;100.00;96888.59;10391031;28;20249;-74
2023/03/28 06:10:20;;;;;;;5.67;2.30;;;;;;;-2.39;100.00;96886.91;10435361;28;20241;-74
2023/03/28 06:15:50;;;;;;;4.73;2.37;;;;;;;-2.22;100.00;96883.53;10414887;28;20193;-74
2023/03/28 06:20:52;;;;;;;6.80;2.40;;;;;;;-1.78;100.00;96895.13;10440498;28;20248;-76
2023/03/28 06:25:53;;;;;;;3.03;1.87;;;;;;;-1.53;100.00;96897.28;10409928;28;20355;-76
2023/03/28 06:30:55;;;;;;;3.97;2.83;;;;;;;-1.90;100.00;96905.13;10412074;28;20233;-75
2023/03/28 06:35:55;;;;;;;9.83;2.77;;;;;;;-1.42;100.00;96907.88;10438204;28;20561;-76
2023/03/28 06:40:57;;;;;;;5.03;2.27;;;;;;;-0.29;100.00;96901.94;10417840;28;20237;-76
2023/03/28 06:45:57;;;;;;;6.57;2.60;;;;;;;0.79;100.00;96883.75;10412853;28;20270;-76
2023/03/28 06:50:58;;;;;;;5.03;2.20;;;;;;;0.71;100.00;96866.16;10411595;28;20647;-77
2023/03/28 06:56:10;;;;;;;4.10;2.00;;;;;;;0.02;99.03;96864.22;10441287;28;20191;-75
2023/03/28 07:01:11;;;;;;;9.53;3.83;;;;;;;-0.91;100.00;96889.84;10417802;28;20215;-77
2023/03/28 07:06:19;;;;;;;5.67;2.00;;;;;;;-0.97;100.00;96913.31;10442674;28;20715;-77
2023/03/28 07:11:19;;;;;;;7.97;2.67;;;;;;;-0.90;100.00;96941.19;10466532;28;20198;-77
2023/03/28 07:16:23;;;;;;;7.60;2.93;;;;;;;-1.06;100.00;96944.63;10466706;28;20562;-77
2023/03/28 07:21:24;;;;;;;5.50;2.20;;;;;;;-1.24;100.00;96951.53;10468094;28;20207;-77
2023/03/28 07:26:28;;;;;;;8.90;2.60;;;;;;;-1.35;100.00;96946.94;10472988;28;20183;-77
2023/03/28 07:31:29;;;;;;;8.83;2.70;;;;;;;-1.41;100.00;96942.09;10482912;28;20541;-76
2023/03/28 07:36:32;;;;;;;9.50;2.80;;;;;;;-1.64;100.00;96954.34;10429619;28;20191;-77
2023/03/28 07:41:41;;;;;;;3.47;2.57;;;;;;;-1.30;99.00;96947.56;10402248;28;20263;-77
2023/03/28 07:46:42;;;;;;;6.97;2.17;;;;;;;-0.47;97.16;96950.94;10396748;28;20278;-77
2023/03/28 07:51:43;;;;;;;3.53;2.33;;;;;;;0.74;90.35;96903.00;10416368;28;20184;-77
2023/03/28 07:56:44;;;;;;;4.53;2.40;;;;;;;1.54;83.03;96846.50;10409813;28;20214;-78
2023/03/28 08:02:11;;;;;;;3.57;2.30;;;;;;;1.81;82.37;96862.00;10422007;28;20222;-77
2023/03/28 08:07:14;;;;;;;2.67;2.43;;;;;;;1.88;81.73;96865.00;10413742;28;20211;-76
2023/03/28 08:12:18;;;;;;;3.87;2.37;;;;;;;2.62;79.87;96870.50;10430651;28;20275;-77
2023/03/28 08:17:20;;;;;;;2.90;2.20;;;;;;;3.18;78.06;96862.38;10449692;28;20206;-76
2023/03/28 08:22:21;;;;;;;3.17;2.20;;;;;;;3.17;73.05;96814.97;10487644;28;20222;-76
2023/03/28 08:27:41;;;;;;;5.07;1.80;;;;;;;4.94;68.65;96787.28;10472045;28;20191;-76
2023/03/28 08:32:47;;;;;;;3.37;1.67;;;;;;;4.62;66.49;96775.88;10450321;28;20275;-76
2023/03/28 08:37:50;;;;;;;3.50;1.80;;;;;;;4.19;66.02;96770.50;10430303;28;20319;-76
2023/03/28 08:43:15;;;;;;;3.00;1.43;;;;;;;3.29;63.50;96717.50;10451853;28;20272;-76
2023/03/28 08:48:32;;;;;;;4.20;1.73;;;;;;;3.09;66.48;96793.97;10451452;28;20192;-76
2023/03/28 08:53:36;;;;;;;2.40;1.40;;;;;;;3.82;63.73;96771.47;10421545;28;20180;-75
2023/03/28 08:58:46;;;;;;;4.27;1.80;;;;;;;3.86;61.78;96740.97;10422282;28;20188;-77
2023/03/28 09:03:49;;;;;;;1.97;1.37;;;;;;;2.54;67.82;96868.41;10437283;28;20218;-78
2023/03/28 09:09:15;;;;;;;2.47;1.43;;;;;;;3.08;65.09;96805.28;10433554;28;20192;-80
2023/03/28 09:14:41;;;;;;;1.30;1.20;;;;;;;3.97;61.60;96786.84;10423420;28;20726;-80
2023/03/28 09:20:15;;;;;;;2.60;1.27;;;;;;;4.11;60.68;96765.91;10437336;28;20215;-79
2023/03/28 09:25:48;;;;;;;1.67;1.50;;;;;;;3.75;61.66;96811.72;10397208;28;20189;-77
2023/03/28 09:30:51;;;;;;;5.37;1.40;;;;;;;3.61;60.90;96799.78;10437557;28;20185;-76
2023/03/28 09:35:55;;;;;;;2.87;1.00;;;;;;;3.47;60.20;96780.06;10436241;28;20200;-77
2023/03/28 09:40:57;;;;;;;1.40;1.00;;;;;;;4.23;58.91;96766.75;10421719;28;20223;-76
2023/03/28 09:46:40;;;;;;;1.40;1.30;;;;;;;3.40;60.69;96804.75;10414545;28;20677;-76
2023/03/28 09:51:54;;;;;;;3.37;2.10;;;;;;;3.64;64.31;96895.41;10440591;28;20235;-76
2023/03/28 09:57:00;;;;;;;3.00;1.43;;;;;;;3.76;59.24;96792.66;10397966;28;20272;-75
2023/03/28 10:02:25;;;;;;;1.67;1.00;;;;;;;4.40;60.39;96835.50;10411141;28;20294;-76
2023/03/28 10:07:33;;;;;;;1.70;1.10;;;;;;;5.17;55.50;96756.91;10410357;28;20203;-76
2023/03/28 10:12:45;;;;;;;3.03;1.20;;;;;;;5.10;56.36;96789.50;10408491;28;20201;-76
2023/03/28 10:17:46;;;;;;;2.33;1.20;;;;;;;4.55;58.81;96825.72;10435658;28;20192;-76
2023/03/28 10:22:51;;;;;;;1.43;1.00;;;;;;;6.67;56.89;96836.63;10435838;28;20223;-76
2023/03/28 10:27:52;;;;;;;0.80;0.80;;;;;;;4.62;51.59;96663.47;10434947;28;20208;-75
2023/03/28 10:33:15;;;;;;;2.43;1.50;;;;;;;2.75;60.24;96836.88;10434810;28;20184;-75
2023/03/28 10:38:42;;;;;;;2.13;1.83;;;;;;;4.56;58.52;96845.53;10451071;28;20642;-76
2023/03/28 10:44:16;;;;;;;1.47;1.10;;;;;;;3.40;57.64;96789.22;10414184;28;20188;-75
2023/03/28 10:49:23;;;;;;;1.60;1.20;;;;;;;3.49;58.21;96811.88;10404309;28;20656;-75
2023/03/28 10:54:51;;;;;;;1.73;1.30;;;;;;;3.66;60.96;96887.53;10376930;28;20684;-75
2023/03/28 11:00:28;;;;;;;2.23;1.50;;;;;;;4.36;60.66;96885.94;10392285;28;20220;-74
2023/03/28 11:05:36;;;;;;;3.27;1.30;;;;;;;4.29;57.39;96820.75;10394276;28;20196;-74
2023/03/28 11:10:45;;;;;;;4.30;1.10;;;;;;;4.00;58.01;96835.88;10408088;28;20188;-75
2023/03/28 11:16:24;;;;;;;2.93;1.30;;;;;;;5.07;56.74;96833.88;10417011;28;20214;-75
2023/03/28 11:21:52;;;;;;;2.17;1.20;;;;;;;5.93;52.21;96754.28;10432699;28;20223;-75
2023/03/28 11:27:21;;;;;;;3.23;1.27;;;;;;;4.27;55.28;96791.50;10431772;28;20686;-75
2023/03/28 11:32:44;;;;;;;3.30;1.60;;;;;;;3.88;57.44;96827.22;10431622;28;20578;-75
2023/03/28 11:38:01;;;;;;;4.70;1.30;;;;;;;4.38;56.95;96840.81;10432226;28;20232;-75
2023/03/28 11:43:05;;;;;;;1.73;1.20;;;;;;;3.74;57.66;96839.41;10415609;28;20700;-75
2023/03/28 11:48:25;;;;;;;2.30;1.40;;;;;;;4.83;57.59;96871.19;10431287;28;20282;-75
2023/03/28 11:53:30;;;;;;;1.93;1.40;;;;;;;5.18;54.65;96811.34;10431705;28;20187;-76
2023/03/28 11:58:39;;;;;;;2.90;1.40;;;;;;;4.80;55.91;96832.47;10431704;28;20275;-75
2023/03/28 12:03:53;;;;;;;3.27;1.57;;;;;;;5.92;52.52;96773.41;10430965;28;20245;-75
2023/03/28 12:09:17;;;;;;;2.07;1.60;;;;;;;4.60;53.34;96766.53;10431541;28;20188;-76
2023/03/28 12:14:34;;;;;;;5.30;1.60;;;;;;;4.68;54.71;96797.91;10430965;28;20183;-75
2023/03/28 12:19:42;;;;;;;2.70;1.80;;;;;;;5.02;54.06;96794.47;10435260;28;20339;-75
2023/03/28 12:24:57;;;;;;;2.87;1.50;;;;;;;5.11;56.31;96838.72;10438744;28;20194;-76
2023/03/28 12:30:12;;;;;;;5.60;1.90;;;;;;;4.70;56.74;96832.38;10423184;28;20245;-75
2023/03/28 12:35:20;;;;;;;3.57;1.80;;;;;;;4.05;59.11;96877.81;10438731;28;20210;-75
2023/03/28 12:40:49;;;;;;;10.13;2.00;;;;;;;4.03;59.11;96864.16;10437882;28;20258;-76
2023/03/28 12:45:53;;;;;;;3.67;2.23;;;;;;;4.73;59.52;96904.81;10438082;28;20184;-75
2023/03/28 12:50:57;;;;;;;6.50;2.00;;;;;;;5.04;58.87;96888.63;10421654;28;20192;-76
2023/03/28 12:55:59;;;;;;;2.17;1.73;;;;;;;5.30;58.54;96884.88;10437335;28;20191;-76
2023/03/28 13:01:20;;;;;;;3.03;1.40;;;;;;;4.54;57.52;96845.66;10437240;28;20677;-75
2023/03/28 13:06:49;;;;;;;2.30;1.43;;;;;;;5.92;56.29;96859.22;10454245;28;20273;-75
2023/03/28 13:12:15;;;;;;;4.47;1.87;;;;;;;6.31;54.69;96840.50;10455143;28;20188;-76
2023/03/28 13:17:22;;;;;;;3.57;1.67;;;;;;;7.53;52.32;96812.78;10455121;28;20196;-75
2023/03/28 13:22:32;;;;;;;5.00;1.60;;;;;;;6.81;50.27;96754.75;10447979;28;20350;-75
2023/03/28 13:27:33;;;;;;;5.87;1.30;;;;;;;5.41;53.34;96774.94;10427862;28;20196;-76
2023/03/28 13:32:37;;;;;;;2.00;1.70;;;;;;;5.97;55.06;96846.72;10414387;28;20258;-76
2023/03/28 13:37:41;;;;;;;3.30;1.50;;;;;;;6.55;51.94;96780.41;10408550;28;20632;-76
2023/03/28 13:42:58;;;;;;;2.67;1.60;;;;;;;7.46;51.55;96802.09;10432752;28;20220;-76
2023/03/28 13:47:59;;;;;;;2.80;1.57;;;;;;;7.01;50.77;96765.22;10414218;28;20191;-76
2023/03/28 13:53:00;;;;;;;5.77;1.70;;;;;;;6.04;51.76;96775.03;10424855;28;20203;-75
2023/03/28 13:58:00;;;;;;;3.13;1.70;;;;;;;5.02;53.24;96791.88;10453024;28;20561;-75
2023/03/28 14:03:03;;;;;;;4.10;2.00;;;;;;;5.02;54.75;96826.44;10452616;28;20222;-75
2023/03/28 14:08:12;;;;;;;8.40;2.07;;;;;;;5.70;54.27;96826.34;10452465;28;20278;-76
2023/03/28 14:13:18;;;;;;;2.00;1.30;;;;;;;6.76;51.49;96793.38;10452736;28;20206;-76
2023/03/28 14:18:27;;;;;;;4.00;2.13;;;;;;;7.33;48.88;96736.34;10434750;28;20270;-76
2023/03/28 14:23:35;;;;;;;8.90;3.20;;;;;;;7.17;51.30;96798.56;10433851;28;20231;-76
2023/03/28 14:28:38;;;;;;;6.83;2.70;;;;;;;6.30;53.21;96811.09;10433342;28;20723;-76
2023/03/28 14:33:40;;;;;;;4.20;2.73;;;;;;;5.58;54.57;96817.75;10451627;28;20267;-76
2023/03/28 14:38:41;;;;;;;10.27;2.57;;;;;;;5.33;56.55;96871.66;10450838;28;20248;-76
2023/03/28 14:43:41;;;;;;;4.97;2.23;;;;;;;7.96;52.60;96845.53;10450968;28;20232;-75
2023/03/28 14:48:42;;;;;;;4.80;1.80;;;;;;;8.89;49.17;96762.22;10451759;28;20180;-76
2023/03/28 14:53:46;;;;;;;5.17;1.70;;;;;;;9.55;48.81;96796.91;10449973;28;20214;-76
2023/03/28 14:58:48;;;;;;;8.52;2.10;;;;;;;10.84;44.72;96735.38;10433395;28;20238;-76
2023/03/28 15:04:02;;;;;;;4.63;2.10;;;;;;;10.98;44.16;96728.72;10432318;28;20215;-77
2023/03/28 15:09:10;;;;;;;4.53;2.33;;;;;;;9.77;47.50;96784.38;10450380;28;20200;-76
2023/03/28 15:14:15;;;;;;;5.22;1.92;;;;;;;8.76;48.33;96769.56;10449988;28;20219;-76
2023/03/28 15:19:24;;;;;;;9.50;2.70;;;;;;;9.00;49.48;96813.44;10432800;28;20269;-76
2023/03/28 15:24:26;;;;;;;4.97;2.10;;;;;;;7.68;51.85;96836.69;10406515;28;20283;-75
2023/03/28 15:29:27;;;;;;;4.77;2.20;;;;;;;6.24;55.89;96889.63;10394599;28;20275;-76
2023/03/28 15:34:28;;;;;;;3.00;2.20;;;;;;;7.09;56.39;96942.50;10431869;28;20192;-74
2023/03/28 15:39:30;;;;;;;4.97;2.70;;;;;;;5.30;62.02;96995.75;10414600;28;20236;-75
2023/03/28 15:44:33;;;;;;;7.60;3.53;;;;;;;5.16;63.63;97014.94;10407343;28;20192;-75
2023/03/28 15:49:35;;;;;;;5.57;2.33;;;;;;;4.57;66.08;97055.59;10411522;28;20199;-75
2023/03/28 15:54:41;;;;;;;9.33;2.57;;;;;;;4.41;69.99;97117.28;10396981;28;20607;-75
2023/03/28 15:59:47;;;;;;;9.43;2.77;;;;;;;3.85;73.00;97130.66;10390432;28;20216;-75
2023/03/28 16:05:02;;;;;;;7.50;2.53;;;;;;;3.82;74.54;97130.84;10417682;28;20275;-75
2023/03/28 16:10:03;;;;;;;2.47;2.13;;;;;;;3.68;75.22;97131.78;10440053;28;20276;-75
2023/03/28 16:15:08;;;;;;;5.37;2.33;;;;;;;3.25;77.07;97140.66;10414981;28;20214;-75
2023/03/28 16:20:19;;;;;;;5.13;2.53;;;;;;;2.72;81.78;97196.66;10430136;28;20212;-76
2023/03/28 16:25:19;;;;;;;10.20;3.90;;;;;;;2.29;91.51;97185.44;10447479;28;20245;-76
2023/03/28 16:30:25;;;;;;;8.47;3.97;;;;;;;2.17;99.32;97170.66;10448694;28;20664;-75
2023/03/28 16:35:27;;;;;;;9.13;4.03;;;;;;;2.29;100.00;97169.09;10430079;28;20215;-75
2023/03/28 16:40:27;;;;;;;10.97;3.93;;;;;;;2.55;100.00;97164.09;10448781;28;20296;-75
2023/03/28 16:45:29;;;;;;;6.80;3.37;;;;;;;2.98;100.00;97158.78;10430085;28;20605;-75
2023/03/28 16:50:29;;;;;;;10.70;3.47;;;;;;;2.74;98.78;97141.31;10446865;28;20195;-75
2023/03/28 16:55:30;;;;;;;10.77;3.67;;;;;;;1.98;98.47;97134.78;10447057;28;20283;-75
2023/03/28 17:00:32;;;;;;;19.47;11.17;;;;;;;2.00;98.24;97132.94;10447113;28;20269;-75
2023/03/28 17:05:35;;;;;;;8.30;3.60;;;;;;;1.87;94.90;97117.34;10449455;28;20219;-75
2023/03/28 17:10:40;;;;;;;6.40;3.40;;;;;;;1.69;93.95;97116.69;10437045;28;20184;-75
2023/03/28 17:15:41;;;;;;;6.87;3.20;;;;;;;1.88;93.50;97113.81;10453689;28;20286;-75
2023/03/28 17:20:41;;;;;;;9.53;3.60;;;;;;;1.72;92.69;97102.78;10453895;28;20576;-75
2023/03/28 17:25:42;;;;;;;4.93;3.30;;;;;;;1.80;92.72;97118.63;10454291;28;20666;-75
2023/03/28 17:30:43;;;;;;;7.63;4.07;;;;;;;1.35;93.61;97117.84;10452937;28;20193;-75
2023/03/28 17:35:43;;;;;;;7.57;4.17;;;;;;;0.91;96.43;97136.72;10452075;28;20207;-75
2023/03/28 17:40:47;;;;;;;146.07;48.40;;;;;;;0.34;100.00;97158.69;10410557;28;20236;-75
2023/03/28 17:45:52;;;;;;;66.10;33.23;;;;;;;0.48;100.00;97163.91;10411650;28;20193;-74
2023/03/28 17:50:53;;;;;;;39.87;18.10;;;;;;;0.21;100.00;97166.22;10427133;28;20559;-75
2023/03/28 17:55:54;;;;;;;41.93;19.87;;;;;;;-0.22;100.00;97163.31;10427741;28;20200;-75
2023/03/28 18:00:55;;;;;;;32.60;16.93;;;;;;;-0.32;100.00;97173.25;10411086;28;20307;-75
2023/03/28 18:05:58;;;;;;;19.60;10.30;;;;;;;-0.55;100.00;97162.38;10411450;28;20203;-75
2023/03/28 18:11:00;;;;;;;20.27;5.87;;;;;;;-0.64;100.00;97157.69;10410760;28;20560;-74
2023/03/28 18:16:04;;;;;;;15.33;7.60;;;;;;;-0.84;100.00;97163.81;10410273;28;20191;-74
2023/03/28 18:21:06;;;;;;;61.43;28.43;;;;;;;-1.08;100.00;97166.63;10410564;28;20790;-75
2023/03/28 18:26:07;;;;;;;24.63;10.33;;;;;;;-0.94;100.00;97167.72;10409599;28;20193;-74
2023/03/28 18:31:11;;;;;;;27.03;11.63;;;;;;;-1.05;100.00;97165.66;10408397;28;20196;-74
2023/03/28 18:36:12;;;;;;;87.23;26.37;;;;;;;-1.14;100.00;97172.06;10410777;28;20667;-74
2023/03/28 18:41:12;;;;;;;10.13;4.93;;;;;;;-1.07;100.00;97175.19;10449827;28;20228;-74
2023/03/28 18:46:13;;;;;;;9.03;4.47;;;;;;;-1.10;100.00;97165.88;10451944;28;20191;-75
2023/03/28 18:51:14;;;;;;;12.50;4.57;;;;;;;-1.18;100.00;97168.00;10431278;28;20976;-75
2023/03/28 18:56:15;;;;;;;8.43;4.70;;;;;;;-1.29;100.00;97163.38;10444491;28;20192;-75
2023/03/28 19:01:17;;;;;;;15.00;5.77;;;;;;;-1.35;100.00;97162.81;10446350;28;20300;-74
2023/03/28 19:06:17;;;;;;;8.17;4.37;;;;;;;-1.33;100.00;97166.97;10449831;28;20188;-75
2023/03/28 19:11:18;;;;;;;13.73;4.43;;;;;;;-1.42;100.00;97164.84;10432490;28;20228;-75
2023/03/28 19:16:18;;;;;;;8.93;4.07;;;;;;;-1.37;100.00;97167.19;10447164;28;20287;-75
2023/03/28 19:21:19;;;;;;;8.70;3.83;;;;;;;-1.48;100.00;97168.50;10446800;28;20227;-75
2023/03/28 19:26:21;;;;;;;8.07;3.67;;;;;;;-1.50;100.00;97170.31;10446719;28;20568;-74
2023/03/28 19:31:22;;;;;;;9.37;4.40;;;;;;;-1.52;100.00;97166.16;10444643;28;20219;-74
2023/03/28 19:36:23;;;;;;;10.97;4.10;;;;;;;-1.66;100.00;97164.22;10447567;28;20200;-75
2023/03/28 19:41:23;;;;;;;5.47;3.77;;;;;;;-1.75;100.00;97170.59;10445978;28;20258;-75
2023/03/28 19:46:29;;;;;;;13.10;4.67;;;;;;;-1.76;100.00;97170.66;10445831;28;20652;-75
2023/03/28 19:51:29;;;;;;;9.97;4.07;;;;;;;-1.81;100.00;97163.16;10446243;28;20267;-75
2023/03/28 19:56:30;;;;;;;9.73;4.23;;;;;;;-1.87;100.00;97158.31;10447564;28;20192;-75
2023/03/28 20:01:30;;;;;;;12.07;5.60;;;;;;;-1.85;100.00;97154.78;10447042;28;20692;-75
2023/03/28 20:06:30;;;;;;;9.43;4.10;;;;;;;-1.80;100.00;97149.44;10448816;28;20207;-75
2023/03/28 20:11:32;;;;;;;9.73;4.03;;;;;;;-1.86;100.00;97154.84;10444962;28;20557;-75
2023/03/28 20:16:32;;;;;;;15.67;4.33;;;;;;;-1.84;100.00;97156.47;10447359;28;20188;-75
2023/03/28 20:21:32;;;;;;;8.67;4.00;;;;;;;-1.92;100.00;97147.41;10442034;28;20610;-74
2023/03/28 20:26:33;;;;;;;10.77;3.77;;;;;;;-1.86;100.00;97136.88;10442177;28;20719;-74
2023/03/28 20:31:33;;;;;;;18.93;4.07;;;;;;;-1.89;100.00;97134.44;10441189;28;20384;-75
2023/03/28 20:36:34;;;;;;;10.47;3.70;;;;;;;-1.79;100.00;97122.88;10444686;28;20207;-74
2023/03/28 20:41:35;;;;;;;11.83;4.13;;;;;;;-1.76;100.00;97121.88;10448786;28;20224;-74
2023/03/28 20:46:36;;;;;;;12.80;4.07;;;;;;;-1.82;100.00;97108.41;10457331;28;20196;-75
2023/03/28 20:51:37;;;;;;;10.03;3.47;;;;;;;-1.68;100.00;97106.97;10453812;28;20180;-74
2023/03/28 20:56:37;;;;;;;6.90;3.50;;;;;;;-1.72;100.00;97092.59;10454510;28;20191;-74
2023/03/28 21:01:38;;;;;;;13.23;3.40;;;;;;;-1.61;100.00;97092.91;10435434;28;20195;-75
2023/03/28 21:06:38;;;;;;;7.50;3.50;;;;;;;-1.65;100.00;97091.41;10456177;28;20725;-75
2023/03/28 21:11:39;;;;;;;4.43;2.43;;;;;;;-1.68;100.00;97084.66;10452341;28;20580;-75
2023/03/28 21:16:40;;;;;;;10.03;3.83;;;;;;;-1.74;100.00;97090.09;10448936;28;20196;-75
2023/03/28 21:21:40;;;;;;;7.30;3.43;;;;;;;-1.68;100.00;97094.94;10448437;28;20223;-75
2023/03/28 21:26:41;;;;;;;5.77;3.10;;;;;;;-1.67;100.00;97085.50;10454865;28;20196;-75
2023/03/28 21:31:41;;;;;;;10.03;3.17;;;;;;;-1.80;100.00;97086.06;10435124;28;20229;-75
2023/03/28 21:36:41;;;;;;;11.50;2.80;;;;;;;-1.76;100.00;97080.78;10451763;28;20238;-75
2023/03/28 21:41:42;;;;;;;6.03;3.00;;;;;;;-1.83;100.00;97086.19;10453401;28;20207;-75
2023/03/28 21:46:42;;;;;;;10.23;3.40;;;;;;;-1.92;100.00;97078.91;10455350;28;20267;-73
2023/03/28 21:51:42;;;;;;;10.70;3.77;;;;;;;-1.97;100.00;97071.44;10449433;28;20599;-75
2023/03/28 21:56:43;;;;;;;5.13;3.00;;;;;;;-1.97;100.00;97070.59;10446764;28;20196;-75
2023/03/28 22:01:44;;;;;;;14.20;3.87;;;;;;;-2.10;100.00;97080.59;10447138;28;20199;-76
2023/03/28 22:06:44;;;;;;;5.77;2.70;;;;;;;-2.04;100.00;97082.03;10446801;28;20200;-75
2023/03/28 22:11:44;;;;;;;5.73;2.90;;;;;;;-2.00;100.00;97058.72;10434273;28;20570;-75
2023/03/28 22:16:45;;;;;;;7.07;3.10;;;;;;;-2.03;100.00;97061.44;10412214;28;20556;-75
2023/03/28 22:21:47;;;;;;;9.20;2.77;;;;;;;-1.92;100.00;97040.41;10410987;28;20606;-75
2023/03/28 22:26:47;;;;;;;5.13;2.00;;;;;;;-1.94;100.00;97041.41;10418392;28;20184;-75
2023/03/28 22:31:48;;;;;;;13.17;3.27;;;;;;;-1.99;100.00;97037.31;10440646;28;20219;-75
2023/03/28 22:36:48;;;;;;;10.50;3.40;;;;;;;-2.11;100.00;97034.44;10440190;28;20288;-75
2023/03/28 22:41:49;;;;;;;8.20;3.50;;;;;;;-2.01;100.00;97039.09;10425845;28;20205;-75
2023/03/28 22:46:50;;;;;;;7.87;3.03;;;;;;;-1.99;100.00;97042.44;10411906;28;20549;-75
2023/03/28 22:51:54;;;;;;;8.67;2.27;;;;;;;-1.99;100.00;97034.75;10410179;28;20226;-75
2023/03/28 22:56:56;;;;;;;9.40;2.57;;;;;;;-1.98;100.00;97028.72;10411575;28;20287;-74
2023/03/28 23:01:56;;;;;;;14.90;3.33;;;;;;;-1.96;100.00;97023.50;10409419;28;20249;-75
2023/03/28 23:06:57;;;;;;;6.90;2.10;;;;;;;-1.93;100.00;97028.50;10416542;28;20561;-74
2023/03/28 23:11:57;;;;;;;10.03;3.13;;;;;;;-1.90;100.00;97018.09;10410140;28;20224;-75
2023/03/28 23:17:00;;;;;;;12.47;3.27;;;;;;;-1.89;100.00;97014.59;10408974;28;20188;-75
2023/03/28 23:22:01;;;;;;;9.43;2.63;;;;;;;-1.86;100.00;97011.06;10410384;28;20565;-75
2023/03/28 23:27:03;;;;;;;8.07;2.33;;;;;;;-1.81;100.00;97014.22;10410146;28;20180;-75
2023/03/28 23:32:04;;;;;;;13.53;2.73;;;;;;;-1.80;100.00;97016.72;10409347;28;20757;-74
2023/03/28 23:37:04;;;;;;;7.53;2.17;;;;;;;-1.73;100.00;97007.00;10408222;28;20239;-74